Time;durP1;ratioP1;P1;durP2;ratioP2;P2;SDS_P1;SDS_P2;PMS_P1;PMS_P2;Temp;Humidity;BMP_temperature;BMP_pressure;BME280_temperature;BME280_humidity;BME280_pressure;Samples;Min_cycle;Max_cycle;Signal;HPM_P1;HPM_P2
2021/06/07 00:02:04;;;;;;;3.33;3.03;;;17.00;99.90;;;;;;5066391;28;20425;-79
2021/06/07 00:04:32;;;;;;;3.93;3.23;;;17.00;99.90;;;;;;5058453;28;20394;-78
2021/06/07 00:07:01;;;;;;;3.67;3.37;;;16.90;99.90;;;;;;5059993;28;20802;-79
2021/06/07 00:09:30;;;;;;;5.47;3.77;;;16.80;99.90;;;;;;5059755;28;20499;-79
2021/06/07 00:12:00;;;;;;;3.63;3.33;;;16.80;99.90;;;;;;5057867;28;20424;-77
2021/06/07 00:14:31;;;;;;;3.70;2.63;;;16.80;99.90;;;;;;5057884;28;20416;-79
2021/06/07 00:16:59;;;;;;;3.73;3.43;;;16.70;99.90;;;;;;5058636;28;20426;-79
2021/06/07 00:19:28;;;;;;;5.67;3.77;;;16.60;99.90;;;;;;5059671;28;20449;-79
2021/06/07 00:21:57;;;;;;;5.23;3.00;;;16.60;99.90;;;;;;5061037;28;20999;-79
2021/06/07 00:24:25;;;;;;;4.47;3.13;;;16.50;99.90;;;;;;5058624;28;20417;-79
2021/06/07 00:26:55;;;;;;;7.50;3.77;;;16.40;99.90;;;;;;5058250;28;20427;-78
2021/06/07 00:29:22;;;;;;;5.43;5.00;;;16.40;99.90;;;;;;5059460;28;20410;-78
2021/06/07 00:31:50;;;;;;;4.53;3.40;;;16.40;99.90;;;;;;5056725;28;20824;-77
2021/06/07 00:34:18;;;;;;;6.10;5.47;;;16.40;99.90;;;;;;5056432;28;20386;-79
2021/06/07 00:36:45;;;;;;;3.80;3.50;;;16.40;99.90;;;;;;5055980;28;20501;-78
2021/06/07 00:39:15;;;;;;;3.73;3.17;;;16.30;99.90;;;;;;5056057;28;20461;-78
2021/06/07 00:41:44;;;;;;;3.93;3.50;;;16.30;99.90;;;;;;5058830;28;20444;-79
2021/06/07 00:44:16;;;;;;;4.27;3.83;;;16.20;99.90;;;;;;5061712;28;20398;-79
2021/06/07 00:46:44;;;;;;;3.83;3.30;;;16.20;99.90;;;;;;5060673;28;20772;-79
2021/06/07 00:49:12;;;;;;;3.53;3.23;;;16.10;99.90;;;;;;5061072;28;20393;-78
2021/06/07 00:51:42;;;;;;;5.40;3.30;;;16.00;99.90;;;;;;5061196;28;20405;-79
2021/06/07 00:54:10;;;;;;;3.67;3.33;;;16.00;99.90;;;;;;5063352;28;20401;-79
2021/06/07 00:56:39;;;;;;;3.20;2.90;;;15.90;99.90;;;;;;5065869;28;20440;-78
2021/06/07 00:59:06;;;;;;;3.63;3.33;;;15.80;99.90;;;;;;5070645;28;20476;-77
2021/06/07 01:01:35;;;;;;;3.27;2.97;;;15.80;99.90;;;;;;5070249;28;20406;-77
2021/06/07 01:04:05;;;;;;;8.90;3.40;;;15.70;99.90;;;;;;5069823;28;20402;-78
2021/06/07 01:06:33;;;;;;;4.33;3.93;;;15.60;99.90;;;;;;5068353;28;20406;-78
2021/06/07 01:09:01;;;;;;;2.90;2.63;;;15.60;99.90;;;;;;5069271;28;20490;-78
2021/06/07 01:11:29;;;;;;;3.67;3.33;;;15.50;99.90;;;;;;5068820;28;20432;-77
2021/06/07 01:13:57;;;;;;;4.07;3.77;;;15.50;99.90;;;;;;5069511;28;20483;-78
2021/06/07 01:16:25;;;;;;;3.80;3.40;;;15.50;99.90;;;;;;5068658;28;20470;-77
2021/06/07 01:18:54;;;;;;;3.57;3.27;;;15.40;99.90;;;;;;5069112;28;20419;-77
2021/06/07 01:21:24;;;;;;;6.17;3.40;;;15.40;99.90;;;;;;5065592;28;20425;-79
2021/06/07 01:23:55;;;;;;;3.97;3.57;;;15.40;99.90;;;;;;5070773;28;20448;-78
2021/06/07 01:26:24;;;;;;;3.17;2.93;;;15.20;99.90;;;;;;5070278;28;20419;-78
2021/06/07 01:28:54;;;;;;;3.17;2.97;;;15.20;99.90;;;;;;5069599;28;20406;-78
2021/06/07 01:31:22;;;;;;;3.67;3.10;;;15.20;99.90;;;;;;5069107;28;20413;-78
2021/06/07 01:33:51;;;;;;;3.13;2.90;;;15.10;99.90;;;;;;5064097;28;20429;-78
2021/06/07 01:36:19;;;;;;;5.80;3.80;;;15.10;99.90;;;;;;5057824;28;20896;-78
2021/06/07 01:38:48;;;;;;;4.30;3.63;;;15.10;99.90;;;;;;5059060;28;20447;-78
2021/06/07 01:41:19;;;;;;;3.40;3.10;;;15.10;99.90;;;;;;5056771;28;20489;-77
2021/06/07 01:43:47;;;;;;;4.63;4.00;;;15.00;99.90;;;;;;5055368;28;20459;-77
2021/06/07 01:46:15;;;;;;;5.13;3.67;;;14.90;99.90;;;;;;5059243;28;20710;-78
2021/06/07 01:48:43;;;;;;;4.47;3.70;;;14.90;99.90;;;;;;5062189;28;20445;-77
2021/06/07 01:51:11;;;;;;;5.37;3.63;;;14.80;99.90;;;;;;5064319;28;20445;-78
2021/06/07 01:53:40;;;;;;;3.50;3.00;;;14.80;99.90;;;;;;5063646;28;20386;-77
2021/06/07 01:56:09;;;;;;;4.07;3.67;;;14.70;99.90;;;;;;5064478;28;20857;-77
2021/06/07 01:58:39;;;;;;;3.43;3.13;;;14.60;99.90;;;;;;5064525;28;20402;-78
2021/06/07 02:01:10;;;;;;;4.40;3.50;;;14.60;99.90;;;;;;5074698;28;20539;-78
2021/06/07 02:03:39;;;;;;;5.60;3.70;;;14.60;99.90;;;;;;5076746;28;20556;-78
2021/06/07 02:06:09;;;;;;;4.83;3.77;;;14.50;99.90;;;;;;5075181;28;20418;-77
2021/06/07 02:08:38;;;;;;;4.70;3.83;;;14.50;99.90;;;;;;5071946;28;20415;-78
2021/06/07 02:11:07;;;;;;;4.63;4.13;;;14.40;99.90;;;;;;5058997;28;20504;-79
2021/06/07 02:13:37;;;;;;;4.13;3.83;;;14.40;99.90;;;;;;5056569;28;20427;-79
2021/06/07 02:16:06;;;;;;;3.27;2.90;;;14.30;99.90;;;;;;5058162;28;20881;-80
2021/06/07 02:18:36;;;;;;;4.87;3.70;;;14.30;99.90;;;;;;5059408;28;20807;-77
2021/06/07 02:21:05;;;;;;;5.70;3.70;;;14.30;99.90;;;;;;5066345;28;20413;-79
2021/06/07 02:23:34;;;;;;;3.47;3.17;;;14.20;99.90;;;;;;5065444;28;20431;-77
2021/06/07 02:26:02;;;;;;;5.00;4.60;;;14.30;99.90;;;;;;5072322;28;20752;-78
2021/06/07 02:28:30;;;;;;;3.10;2.83;;;14.20;99.90;;;;;;5066564;28;20519;-77
2021/06/07 02:31:00;;;;;;;7.80;4.20;;;14.20;99.90;;;;;;5068190;28;20491;-77
2021/06/07 02:33:27;;;;;;;6.33;4.47;;;14.20;99.90;;;;;;5072678;28;20428;-79
2021/06/07 02:35:55;;;;;;;6.20;4.13;;;14.10;99.90;;;;;;5074445;28;20442;-78
2021/06/07 02:38:24;;;;;;;4.40;4.00;;;14.10;99.90;;;;;;5075163;28;20419;-79
2021/06/07 02:40:52;;;;;;;3.43;3.13;;;14.10;99.90;;;;;;5067715;28;20422;-79
2021/06/07 02:43:20;;;;;;;4.40;3.20;;;14.00;99.90;;;;;;5061558;28;20459;-80
2021/06/07 02:45:48;;;;;;;6.00;4.83;;;14.00;99.90;;;;;;5063787;28;20402;-78
2021/06/07 02:48:19;;;;;;;4.33;3.93;;;14.00;99.90;;;;;;5062917;28;20443;-78
2021/06/07 02:50:48;;;;;;;6.17;3.70;;;13.90;99.90;;;;;;5064308;28;20429;-77
2021/06/07 02:53:17;;;;;;;4.93;4.47;;;13.90;99.90;;;;;;5074423;28;20370;-78
2021/06/07 02:55:48;;;;;;;5.10;4.60;;;13.90;99.90;;;;;;5074594;28;20379;-77
2021/06/07 02:58:17;;;;;;;4.93;3.90;;;13.90;99.90;;;;;;5073879;28;20416;-77
2021/06/07 03:00:47;;;;;;;5.27;4.53;;;13.90;99.90;;;;;;5073489;28;20432;-78
2021/06/07 03:03:15;;;;;;;4.57;4.17;;;13.90;99.90;;;;;;5074567;28;20515;-78
2021/06/07 03:05:45;;;;;;;4.63;4.20;;;13.90;99.90;;;;;;5075038;28;20483;-77
2021/06/07 03:08:15;;;;;;;4.93;4.53;;;13.90;99.90;;;;;;5074335;28;20496;-78
2021/06/07 03:10:47;;;;;;;6.00;5.40;;;13.90;99.90;;;;;;5124033;22;20560;-80
2021/06/07 03:13:15;;;;;;;4.67;4.13;;;13.90;99.90;;;;;;5103771;28;20422;-79
2021/06/07 03:15:42;;;;;;;6.57;4.63;;;13.80;99.90;;;;;;5102545;28;20399;-80
2021/06/07 03:18:10;;;;;;;4.37;3.97;;;13.90;99.90;;;;;;5096414;28;20400;-79
2021/06/07 03:20:38;;;;;;;5.07;3.63;;;13.90;99.90;;;;;;5099238;28;20435;-79
2021/06/07 03:23:09;;;;;;;4.00;3.60;;;13.90;99.90;;;;;;5101684;28;20503;-78
2021/06/07 03:25:38;;;;;;;4.70;4.23;;;14.00;99.90;;;;;;5101165;28;20417;-77
2021/06/07 03:28:07;;;;;;;8.10;4.30;;;14.00;99.90;;;;;;5100359;28;20976;-79
2021/06/07 03:30:36;;;;;;;4.87;4.13;;;14.10;99.90;;;;;;5107640;28;20416;-79
2021/06/07 03:33:05;;;;;;;6.40;5.17;;;14.20;99.90;;;;;;5111975;28;20407;-79
2021/06/07 03:35:35;;;;;;;6.50;5.30;;;14.20;99.90;;;;;;5109607;28;20805;-78
2021/06/07 03:38:02;;;;;;;4.87;4.40;;;14.40;99.90;;;;;;5109597;28;20418;-79
2021/06/07 03:40:34;;;;;;;5.00;4.43;;;14.80;99.90;;;;;;5113188;28;20408;-76
2021/06/07 03:43:03;;;;;;;7.00;4.00;;;15.50;99.90;;;;;;5118869;28;20480;-77
2021/06/07 03:45:32;;;;;;;5.53;4.10;;;16.40;99.90;;;;;;5118858;28;20376;-77
2021/06/07 03:48:00;;;;;;;4.63;4.13;;;17.00;99.90;;;;;;5117988;28;20428;-77
2021/06/07 03:50:30;;;;;;;5.27;4.80;;;17.60;99.90;;;;;;5118632;28;20425;-77
2021/06/07 03:52:58;;;;;;;5.60;4.70;;;18.20;99.90;;;;;;5117948;28;20395;-78
2021/06/07 03:55:27;;;;;;;5.50;5.00;;;18.90;99.90;;;;;;5117962;28;20468;-78
2021/06/07 03:57:58;;;;;;;4.90;4.40;;;19.50;99.90;;;;;;5118574;28;20410;-77
2021/06/07 04:00:28;;;;;;;4.77;4.37;;;19.70;99.90;;;;;;5117774;28;20420;-78
2021/06/07 04:02:57;;;;;;;5.07;4.63;;;20.30;99.90;;;;;;5117531;28;20432;-78
2021/06/07 04:05:25;;;;;;;4.40;4.00;;;20.50;99.90;;;;;;5117704;28;20396;-78
2021/06/07 04:07:53;;;;;;;3.73;3.40;;;20.10;99.90;;;;;;5111283;28;20453;-80
2021/06/07 04:10:23;;;;;;;4.93;4.43;;;20.40;99.90;;;;;;5101876;28;20476;-78
2021/06/07 04:12:52;;;;;;;4.97;4.10;;;21.10;99.90;;;;;;5107167;28;20400;-79
2021/06/07 04:15:23;;;;;;;4.97;4.20;;;21.20;99.90;;;;;;5106420;28;20414;-80
2021/06/07 04:17:52;;;;;;;4.63;4.23;;;21.00;99.90;;;;;;5099307;28;20409;-80
2021/06/07 04:20:22;;;;;;;4.60;4.07;;;21.80;99.90;;;;;;5104710;28;20439;-79
2021/06/07 04:22:50;;;;;;;4.90;4.50;;;22.40;99.90;;;;;;5104262;28;20388;-79
2021/06/07 04:25:20;;;;;;;4.60;4.20;;;22.80;99.90;;;;;;5108880;28;20392;-80
2021/06/07 04:27:51;;;;;;;4.40;3.87;;;23.20;99.90;;;;;;5109404;28;20388;-79
2021/06/07 04:30:22;;;;;;;4.27;3.50;;;23.60;99.90;;;;;;5103270;28;20416;-78
2021/06/07 04:32:51;;;;;;;3.53;3.23;;;23.60;99.90;;;;;;5081935;28;20434;-78
2021/06/07 04:35:19;;;;;;;5.57;4.07;;;23.90;99.90;;;;;;5075756;28;20807;-79
2021/06/07 04:37:50;;;;;;;4.60;3.50;;;24.50;99.90;;;;;;5076146;28;20407;-79
2021/06/07 04:40:19;;;;;;;4.80;4.30;;;24.80;99.90;;;;;;5075460;28;20472;-80
2021/06/07 04:42:47;;;;;;;4.73;3.60;;;25.40;99.90;;;;;;5077188;28;20825;-77
2021/06/07 04:45:15;;;;;;;4.50;4.00;;;25.50;99.90;;;;;;5076235;28;20457;-79
2021/06/07 04:47:45;;;;;;;4.20;3.80;;;25.20;99.90;;;;;;5078505;28;20385;-79
2021/06/07 04:50:13;;;;;;;4.33;3.93;;;25.80;99.90;;;;;;5077208;28;20478;-79
2021/06/07 04:55:27;;;;;;;4.63;3.70;;;26.50;99.90;;;;;;5075785;28;20404;-78
2021/06/07 04:57:54;;;;;;;4.47;3.80;;;26.70;99.90;;;;;;5076883;28;20434;-78
2021/06/07 05:00:24;;;;;;;4.60;4.20;;;27.20;99.90;;;;;;5074951;28;20507;-78
2021/06/07 05:02:53;;;;;;;3.50;3.13;;;27.40;99.90;;;;;;5077129;28;20509;-80
2021/06/07 05:05:22;;;;;;;4.10;3.70;;;28.00;99.90;;;;;;5076188;28;20738;-80
2021/06/07 05:07:50;;;;;;;3.80;3.50;;;27.90;99.90;;;;;;5075676;28;20418;-79
2021/06/07 05:10:18;;;;;;;6.40;4.57;;;28.00;99.90;;;;;;5077924;28;20429;-78
2021/06/07 05:12:46;;;;;;;7.00;4.07;;;28.40;99.90;;;;;;5076996;28;20425;-78
2021/06/07 05:15:15;;;;;;;5.37;4.07;;;28.50;99.90;;;;;;5076852;28;20891;-78
2021/06/07 05:17:43;;;;;;;6.60;3.77;;;28.80;99.90;;;;;;5076033;28;20875;-80
2021/06/07 05:20:15;;;;;;;5.87;4.10;;;28.60;99.90;;;;;;5075848;28;20451;-79
2021/06/07 05:22:43;;;;;;;5.23;3.63;;;28.20;99.90;;;;;;5080150;28;20409;-79
2021/06/07 05:25:11;;;;;;;3.43;2.83;;;28.30;99.90;;;;;;5080670;28;20470;-79
2021/06/07 05:27:39;;;;;;;5.33;4.17;;;28.30;99.90;;;;;;5081402;28;20425;-78
2021/06/07 05:30:08;;;;;;;4.40;3.23;;;28.20;99.90;;;;;;5068215;28;20429;-78
2021/06/07 05:32:37;;;;;;;2.80;2.60;;;26.80;99.90;;;;;;5060882;28;20406;-80
2021/06/07 05:35:07;;;;;;;3.70;3.13;;;24.70;99.90;;;;;;5060134;28;20935;-79
2021/06/07 05:37:36;;;;;;;3.30;3.00;;;23.30;99.90;;;;;;5062948;28;20469;-79
2021/06/07 05:40:06;;;;;;;4.40;3.80;;;21.30;99.90;;;;;;5070478;28;20444;-80
2021/06/07 05:42:35;;;;;;;2.80;2.60;;;20.00;99.90;;;;;;5072551;28;20430;-77
2021/06/07 05:45:04;;;;;;;5.23;3.87;;;19.50;99.90;;;;;;5073027;28;20505;-78
2021/06/07 05:47:31;;;;;;;3.57;3.27;;;18.90;99.90;;;;;;5062092;28;20481;-80
2021/06/07 05:50:00;;;;;;;3.40;2.77;;;18.60;99.90;;;;;;5059275;28;20448;-80
2021/06/07 05:52:27;;;;;;;7.20;3.30;;;18.80;99.90;;;;;;5061702;28;20457;-80
2021/06/07 05:54:56;;;;;;;3.90;3.10;;;18.80;99.90;;;;;;5061137;28;20398;-79
2021/06/07 05:57:24;;;;;;;3.00;2.67;;;19.00;99.90;;;;;;5061991;28;20457;-80
2021/06/07 05:59:53;;;;;;;5.37;2.90;;;19.10;99.90;;;;;;5061952;28;20425;-79
2021/06/07 06:02:21;;;;;;;4.63;3.63;;;19.00;99.90;;;;;;5061774;28;20493;-79
2021/06/07 06:04:49;;;;;;;4.03;3.13;;;18.80;99.90;;;;;;5061771;28;20513;-77
2021/06/07 06:07:16;;;;;;;3.80;3.43;;;18.70;99.90;;;;;;5061216;28;20406;-79
2021/06/07 06:09:44;;;;;;;5.07;2.87;;;18.70;99.90;;;;;;5061280;28;20443;-79
2021/06/07 06:12:13;;;;;;;4.47;3.40;;;18.70;99.90;;;;;;5061617;28;20769;-78
2021/06/07 06:14:41;;;;;;;6.00;3.37;;;18.80;99.90;;;;;;5068797;28;20415;-79
2021/06/07 06:17:09;;;;;;;3.87;3.50;;;18.80;99.90;;;;;;5084243;28;21086;-80
2021/06/07 06:19:36;;;;;;;5.47;3.03;;;18.70;99.90;;;;;;5086936;28;20416;-78
2021/06/07 06:22:06;;;;;;;3.20;2.90;;;18.90;99.90;;;;;;5086085;28;20407;-79
2021/06/07 06:24:34;;;;;;;3.50;2.47;;;18.90;99.90;;;;;;5085456;28;20478;-79
2021/06/07 06:27:03;;;;;;;2.73;2.53;;;19.10;99.90;;;;;;5086842;28;20418;-80
2021/06/07 06:29:32;;;;;;;5.33;3.60;;;19.10;99.90;;;;;;5087441;28;20418;-80
2021/06/07 06:32:00;;;;;;;6.23;3.63;;;19.10;99.90;;;;;;5085121;28;20388;-79
2021/06/07 06:34:28;;;;;;;4.63;3.50;;;19.10;99.90;;;;;;5082992;28;20485;-80
2021/06/07 06:36:56;;;;;;;4.63;2.90;;;19.20;99.90;;;;;;5081503;28;20528;-80
2021/06/07 06:39:24;;;;;;;5.93;3.20;;;19.10;99.90;;;;;;5081496;28;20385;-80
2021/06/07 06:41:51;;;;;;;3.43;3.13;;;19.20;99.90;;;;;;5080783;28;20399;-79
2021/06/07 06:44:19;;;;;;;2.93;2.70;;;19.20;99.90;;;;;;5080022;28;20439;-79
2021/06/07 06:46:49;;;;;;;5.60;3.87;;;19.40;99.90;;;;;;5079432;28;20463;-79
2021/06/07 06:49:16;;;;;;;3.70;2.90;;;19.60;99.90;;;;;;5081112;28;20918;-79
2021/06/07 06:51:44;;;;;;;2.93;2.67;;;19.60;99.90;;;;;;5080146;28;20429;-78
2021/06/07 06:54:12;;;;;;;3.70;3.40;;;19.50;99.90;;;;;;5082443;28;20386;-80
2021/06/07 06:56:40;;;;;;;3.23;2.93;;;19.50;99.90;;;;;;5082110;28;20766;-79
2021/06/07 06:59:07;;;;;;;6.13;4.17;;;19.60;99.90;;;;;;5080819;28;20382;-79
2021/06/07 07:01:35;;;;;;;4.10;3.70;;;19.60;99.90;;;;;;5083431;28;20417;-80
2021/06/07 07:04:05;;;;;;;5.07;4.63;;;19.80;99.90;;;;;;5079198;28;20437;-78
2021/06/07 07:06:32;;;;;;;3.87;3.57;;;20.00;99.90;;;;;;5068899;28;20435;-81
2021/06/07 07:09:00;;;;;;;4.07;2.80;;;20.00;99.90;;;;;;5060404;28;20500;-78
2021/06/07 07:11:28;;;;;;;4.47;4.07;;;20.00;99.90;;;;;;5063616;28;20954;-80
2021/06/07 07:13:56;;;;;;;4.77;4.03;;;20.00;99.90;;;;;;5058020;28;20432;-79
2021/06/07 07:16:24;;;;;;;5.07;3.77;;;20.20;99.90;;;;;;5062907;28;20423;-80
2021/06/07 07:18:52;;;;;;;8.20;3.33;;;20.30;99.90;;;;;;5062509;28;20412;-80
2021/06/07 07:21:21;;;;;;;4.57;3.77;;;20.20;99.90;;;;;;5064478;28;20490;-79
2021/06/07 07:23:48;;;;;;;5.33;4.13;;;20.30;99.90;;;;;;5070419;28;20416;-80
2021/06/07 07:26:16;;;;;;;3.17;2.87;;;20.20;99.90;;;;;;5069481;28;20401;-79
2021/06/07 07:28:44;;;;;;;3.80;3.50;;;20.50;99.90;;;;;;5080658;28;20415;-78
2021/06/07 07:31:11;;;;;;;5.00;4.30;;;20.70;99.90;;;;;;5097630;28;20426;-79
2021/06/07 07:33:39;;;;;;;3.80;3.47;;;20.80;99.90;;;;;;5091199;28;20476;-79
2021/06/07 07:36:11;;;;;;;3.80;3.50;;;20.80;99.90;;;;;;5093980;28;20420;-79
2021/06/07 07:38:40;;;;;;;5.40;4.50;;;20.90;99.90;;;;;;5097864;28;20366;-79
2021/06/07 07:41:09;;;;;;;4.37;3.20;;;20.90;99.90;;;;;;5092794;28;20438;-79
2021/06/07 07:43:37;;;;;;;3.93;3.63;;;20.90;99.90;;;;;;5094033;28;20416;-79
2021/06/07 07:46:05;;;;;;;5.30;4.03;;;21.00;99.90;;;;;;5083760;28;20382;-80
2021/06/07 07:48:33;;;;;;;5.10;4.60;;;21.10;99.90;;;;;;5066749;28;20903;-79
2021/06/07 07:51:01;;;;;;;3.73;3.37;;;21.30;99.90;;;;;;5063032;28;20440;-79
2021/06/07 07:53:29;;;;;;;4.80;3.90;;;21.40;99.90;;;;;;5060807;28;20905;-79
2021/06/07 07:55:58;;;;;;;4.10;3.50;;;21.50;99.90;;;;;;5060466;28;20438;-79
2021/06/07 07:58:26;;;;;;;4.70;3.63;;;21.50;99.90;;;;;;5058220;28;20390;-79
2021/06/07 08:00:54;;;;;;;4.03;3.73;;;21.60;99.90;;;;;;5058226;28;20417;-80
2021/06/07 08:03:21;;;;;;;4.47;3.10;;;21.70;99.90;;;;;;5058035;28;20410;-78
2021/06/07 08:05:49;;;;;;;3.90;3.50;;;21.60;99.90;;;;;;5058371;28;20471;-79
2021/06/07 08:08:17;;;;;;;4.00;3.70;;;21.60;99.90;;;;;;5057994;28;20981;-80
2021/06/07 08:10:44;;;;;;;3.60;2.83;;;21.70;99.90;;;;;;5057814;28;20455;-79
2021/06/07 08:13:13;;;;;;;4.17;3.77;;;21.80;99.90;;;;;;5060045;28;20434;-80
2021/06/07 08:15:41;;;;;;;3.80;3.50;;;21.90;99.90;;;;;;5056818;28;20390;-79
2021/06/07 08:18:09;;;;;;;5.53;3.90;;;22.10;99.90;;;;;;5056890;28;20778;-79
2021/06/07 08:20:37;;;;;;;4.40;4.00;;;22.10;99.90;;;;;;5063938;28;20418;-78
2021/06/07 08:23:04;;;;;;;6.47;4.00;;;22.00;99.90;;;;;;5077574;28;20438;-78
2021/06/07 08:25:32;;;;;;;3.77;3.37;;;22.20;99.90;;;;;;5076746;28;20482;-77
2021/06/07 08:28:00;;;;;;;3.93;3.63;;;22.30;99.90;;;;;;5077787;28;20370;-79
2021/06/07 08:30:30;;;;;;;5.93;3.60;;;22.20;99.90;;;;;;5069013;28;20466;-78
2021/06/07 08:32:58;;;;;;;4.60;4.00;;;22.00;99.90;;;;;;5060026;28;20503;-80
2021/06/07 08:35:28;;;;;;;4.57;4.07;;;22.10;99.90;;;;;;5062644;28;20437;-79
2021/06/07 08:37:56;;;;;;;3.93;3.63;;;22.00;99.90;;;;;;5057682;28;20424;-80
2021/06/07 08:40:25;;;;;;;4.50;4.10;;;22.10;99.90;;;;;;5056632;28;20451;-79
2021/06/07 08:42:53;;;;;;;6.03;3.47;;;22.10;99.90;;;;;;5058395;28;20431;-78
2021/06/07 08:45:22;;;;;;;6.43;3.87;;;22.10;99.90;;;;;;5078789;28;20473;-78
2021/06/07 08:47:53;;;;;;;5.20;3.67;;;22.20;99.90;;;;;;5097993;28;20974;-81
2021/06/07 08:50:23;;;;;;;4.17;3.80;;;22.30;99.90;;;;;;5099525;28;20441;-79
2021/06/07 08:52:51;;;;;;;4.70;3.60;;;22.40;99.90;;;;;;5099627;28;20417;-79
2021/06/07 08:55:22;;;;;;;6.13;4.20;;;22.50;99.90;;;;;;5099737;28;20399;-79
2021/06/07 08:57:52;;;;;;;4.37;3.50;;;22.60;99.90;;;;;;5099329;28;20410;-79
2021/06/07 09:00:22;;;;;;;8.37;5.37;;;22.80;99.90;;;;;;5099027;28;20420;-79
2021/06/07 09:02:58;;;;;;;5.47;3.50;;;23.10;99.90;;;;;;5097344;28;20373;-79
2021/06/07 09:05:27;;;;;;;4.03;3.63;;;22.90;99.90;;;;;;5098127;28;20469;-79
2021/06/07 09:07:58;;;;;;;4.70;4.30;;;22.80;99.90;;;;;;5075925;28;20426;-79
2021/06/07 09:10:28;;;;;;;3.40;3.03;;;23.10;99.90;;;;;;5098065;22;20456;-79
2021/06/07 09:12:58;;;;;;;6.30;4.70;;;23.10;99.90;;;;;;5092099;28;20985;-79
2021/06/07 09:15:34;;;;;;;4.13;3.73;;;23.00;99.90;;;;;;5098401;28;20774;-79
2021/06/07 09:18:05;;;;;;;4.67;3.03;;;23.10;99.90;;;;;;5096534;28;20822;-78
2021/06/07 09:20:34;;;;;;;3.83;3.50;;;23.10;99.90;;;;;;5082957;28;20517;-79
2021/06/07 09:23:06;;;;;;;3.57;3.27;;;23.20;99.90;;;;;;5076200;28;20464;-80
2021/06/07 09:25:35;;;;;;;3.50;3.20;;;23.20;99.90;;;;;;5088549;28;20457;-78
2021/06/07 09:28:14;;;;;;;3.50;3.10;;;23.30;99.90;;;;;;5097603;28;20844;-78
2021/06/07 09:30:46;;;;;;;4.23;3.83;;;23.30;99.90;;;;;;5096866;28;20813;-79
2021/06/07 09:33:35;;;;;;;3.73;3.40;;;23.40;99.90;;;;;;5096993;28;20414;-77
2021/06/07 09:36:12;;;;;;;3.40;3.10;;;23.40;99.90;;;;;;5095434;28;20509;-82
2021/06/07 09:39:07;;;;;;;3.53;3.23;;;23.60;99.90;;;;;;5097274;28;20406;-78
2021/06/07 09:41:49;;;;;;;5.13;3.03;;;24.00;99.90;;;;;;5097119;28;20452;-78
2021/06/07 09:44:25;;;;;;;2.90;2.60;;;24.10;99.90;;;;;;5094256;28;20453;-79
2021/06/07 09:47:06;;;;;;;3.87;3.47;;;24.00;99.90;;;;;;5096871;28;20380;-84
2021/06/07 09:49:40;;;;;;;3.50;3.20;;;24.10;99.90;;;;;;5095282;28;20842;-78
2021/06/07 09:52:15;;;;;;;3.60;3.30;;;24.10;99.90;;;;;;5093966;28;20433;-80
2021/06/07 09:54:43;;;;;;;3.17;2.87;;;24.10;99.90;;;;;;5094967;28;20896;-79
2021/06/07 09:57:11;;;;;;;8.20;3.17;;;24.30;99.90;;;;;;5092695;28;20438;-78
2021/06/07 09:59:43;;;;;;;5.03;3.40;;;24.30;99.90;;;;;;5096982;28;20444;-79
2021/06/07 10:02:17;;;;;;;5.23;4.73;;;24.30;99.90;;;;;;5096422;28;20440;-80
2021/06/07 10:04:52;;;;;;;3.70;3.40;;;23.90;99.90;;;;;;5101486;28;20456;-77
2021/06/07 10:07:21;;;;;;;4.00;3.23;;;24.00;99.90;;;;;;5104169;28;20775;-78
2021/06/07 10:10:07;;;;;;;4.70;4.20;;;24.30;99.90;;;;;;5111455;28;20486;-78
2021/06/07 10:12:35;;;;;;;3.37;3.00;;;24.40;99.90;;;;;;5117342;28;20436;-75
2021/06/07 10:15:04;;;;;;;3.10;2.80;;;24.40;99.90;;;;;;5119437;28;20428;-76
2021/06/07 10:17:32;;;;;;;6.40;3.90;;;24.20;99.90;;;;;;5120054;28;20368;-76
2021/06/07 10:22:49;;;;;;;3.30;3.00;;;24.10;99.90;;;;;;5093622;28;20445;-77
2021/06/07 10:25:17;;;;;;;3.70;3.40;;;24.40;99.90;;;;;;5085306;28;20454;-79
2021/06/07 10:27:44;;;;;;;3.77;3.47;;;24.50;99.90;;;;;;5081948;28;20393;-79
2021/06/07 10:30:22;;;;;;;4.10;3.70;;;24.70;99.90;;;;;;5083213;28;20535;-77
2021/06/07 10:32:51;;;;;;;4.50;3.80;;;24.90;99.90;;;;;;5084666;28;20425;-78
2021/06/07 10:35:36;;;;;;;3.50;3.10;;;24.80;99.90;;;;;;5100678;28;21003;-76
2021/06/07 10:38:09;;;;;;;3.47;3.20;;;24.90;99.90;;;;;;5083737;28;20916;-78
2021/06/07 10:40:49;;;;;;;4.03;3.53;;;25.00;99.90;;;;;;5080620;28;20499;-80
2021/06/07 10:43:17;;;;;;;3.50;3.20;;;25.10;99.90;;;;;;5079494;28;20437;-78
2021/06/07 10:45:46;;;;;;;4.00;2.83;;;25.00;99.90;;;;;;5080695;28;20433;-80
2021/06/07 10:48:31;;;;;;;5.43;3.60;;;24.90;99.90;;;;;;5080993;28;20458;-80
2021/06/07 10:51:09;;;;;;;4.00;3.60;;;25.00;99.90;;;;;;5080697;28;20980;-80
2021/06/07 10:53:36;;;;;;;4.27;3.23;;;25.10;99.90;;;;;;5081161;28;20517;-79
2021/06/07 10:56:07;;;;;;;5.00;3.70;;;25.10;99.90;;;;;;5079153;28;20460;-79
2021/06/07 10:58:35;;;;;;;6.80;3.20;;;25.20;99.90;;;;;;5079171;28;20393;-79
2021/06/07 11:01:04;;;;;;;2.80;2.60;;;25.40;99.90;;;;;;5078748;28;20541;-81
2021/06/07 11:03:33;;;;;;;4.07;2.90;;;25.30;99.90;;;;;;5087826;28;20453;-81
2021/06/07 11:06:04;;;;;;;3.27;2.90;;;25.20;99.90;;;;;;5105455;28;20461;-77
2021/06/07 11:08:34;;;;;;;3.30;3.00;;;25.30;99.90;;;;;;5110107;28;20479;-78
2021/06/07 11:11:04;;;;;;;3.27;2.83;;;25.30;99.90;;;;;;5096717;28;20480;-80
2021/06/07 11:13:33;;;;;;;3.57;3.10;;;25.40;99.90;;;;;;5095589;28;20890;-78
2021/06/07 11:16:03;;;;;;;3.83;3.40;;;25.40;99.90;;;;;;5100903;28;20418;-80
2021/06/07 11:18:33;;;;;;;3.37;3.07;;;25.20;99.90;;;;;;5100669;28;20674;-81
2021/06/07 11:21:18;;;;;;;3.13;2.83;;;25.30;99.90;;;;;;5082835;28;20454;-77
2021/06/07 11:23:47;;;;;;;3.20;2.90;;;25.30;99.90;;;;;;5085344;28;20513;-77
2021/06/07 11:26:20;;;;;;;3.43;2.90;;;25.30;99.90;;;;;;5089243;28;20466;-77
2021/06/07 11:28:49;;;;;;;3.17;2.60;;;25.30;99.90;;;;;;5085992;28;20437;-80
2021/06/07 11:31:51;;;;;;;3.60;3.30;;;25.40;99.90;;;;;;5078234;28;20533;-78
2021/06/07 11:34:45;;;;;;;3.70;3.37;;;25.40;99.90;;;;;;5079462;28;20790;-79
2021/06/07 11:37:17;;;;;;;3.40;3.10;;;25.50;99.90;;;;;;5078871;28;20407;-81
2021/06/07 11:39:51;;;;;;;2.60;2.40;;;25.70;99.90;;;;;;5077068;28;20414;-78
2021/06/07 11:42:23;;;;;;;2.50;2.23;;;25.80;99.90;;;;;;5079975;28;20426;-79
2021/06/07 11:45:02;;;;;;;4.10;3.30;;;25.70;99.90;;;;;;5079289;28;20430;-80
2021/06/07 11:47:50;;;;;;;3.77;3.30;;;25.60;99.90;;;;;;5078669;28;20442;-80
2021/06/07 11:50:19;;;;;;;3.50;2.97;;;25.60;99.90;;;;;;5078764;28;20458;-79
2021/06/07 11:52:52;;;;;;;2.90;2.60;;;25.80;99.90;;;;;;5078123;28;20491;-78
2021/06/07 11:55:32;;;;;;;2.93;2.60;;;26.00;99.90;;;;;;5081524;28;20414;-80
2021/06/07 11:58:18;;;;;;;4.27;3.50;;;26.10;99.90;;;;;;5097756;28;20519;-79
2021/06/07 12:00:49;;;;;;;4.30;3.40;;;25.90;99.90;;;;;;5097587;28;20428;-80
2021/06/07 12:03:20;;;;;;;3.80;3.50;;;25.90;99.90;;;;;;5098613;28;20437;-79
2021/06/07 12:05:49;;;;;;;3.43;2.70;;;25.90;99.90;;;;;;5098674;28;20475;-80
2021/06/07 12:08:19;;;;;;;2.80;2.47;;;25.90;99.90;;;;;;5099201;28;20426;-82
2021/06/07 12:10:53;;;;;;;3.07;2.77;;;26.10;99.90;;;;;;5099678;28;20457;-82
2021/06/07 12:13:26;;;;;;;3.13;2.83;;;26.20;99.90;;;;;;5083586;28;20537;-82
2021/06/07 12:15:58;;;;;;;2.83;2.57;;;26.10;99.90;;;;;;5078881;28;20420;-80
2021/06/07 12:18:31;;;;;;;3.43;2.30;;;26.00;99.90;;;;;;5082792;28;20492;-79
2021/06/07 12:21:01;;;;;;;4.83;2.90;;;25.90;99.90;;;;;;5084858;28;20477;-78
2021/06/07 12:23:32;;;;;;;2.93;2.73;;;26.10;99.90;;;;;;5085900;28;20437;-77
2021/06/07 12:29:23;;;;;;;3.30;3.03;;;26.20;99.90;;;;;;5078913;28;20430;-81
2021/06/07 12:32:06;;;;;;;3.97;3.67;;;26.20;99.90;;;;;;5079236;28;20785;-81
2021/06/07 12:34:34;;;;;;;3.80;3.23;;;26.30;99.90;;;;;;5077807;28;20434;-80
2021/06/07 12:37:03;;;;;;;3.00;2.80;;;26.20;99.90;;;;;;5077456;28;20437;-81
2021/06/07 12:39:32;;;;;;;3.80;3.50;;;26.40;99.90;;;;;;5078664;28;20925;-82
2021/06/07 12:42:01;;;;;;;3.43;3.13;;;26.50;99.90;;;;;;5077697;28;20537;-80
2021/06/07 12:44:28;;;;;;;3.50;3.20;;;26.60;99.90;;;;;;5078686;28;20427;-81
2021/06/07 12:46:57;;;;;;;4.90;3.50;;;26.50;99.90;;;;;;5079361;28;21001;-80
2021/06/07 12:49:26;;;;;;;3.30;3.00;;;26.50;99.90;;;;;;5078776;28;20417;-81
2021/06/07 12:51:58;;;;;;;2.77;2.57;;;26.40;99.90;;;;;;5078121;28;20446;-81
2021/06/07 12:54:27;;;;;;;2.90;2.63;;;26.40;99.90;;;;;;5078648;28;20407;-80
2021/06/07 12:56:57;;;;;;;3.70;3.40;;;26.50;99.90;;;;;;5077107;28;20452;-80
2021/06/07 12:59:29;;;;;;;4.27;3.97;;;26.60;99.90;;;;;;5078169;28;20430;-80
2021/06/07 13:01:58;;;;;;;4.00;3.40;;;26.70;99.90;;;;;;5079309;28;20492;-81
2021/06/07 13:04:26;;;;;;;3.90;3.60;;;26.50;99.90;;;;;;5077640;28;20507;-81
2021/06/07 13:06:54;;;;;;;10.13;3.37;;;26.40;99.90;;;;;;5081312;28;20466;-80
2021/06/07 13:09:35;;;;;;;3.67;3.37;;;26.40;99.90;;;;;;5082936;28;20438;-81
2021/06/07 13:12:04;;;;;;;4.50;3.77;;;26.60;99.90;;;;;;5081256;28;20458;-81